sensor_id;sensor_type;location;lat;lon;timestamp;P1;durP1;ratioP1;P2;durP2;ratioP2
21876;SDS011;11103;43.788;23.710;2022-12-20T00:01:25;57.60;;;23.73;;
21876;SDS011;11103;43.788;23.710;2022-12-20T00:03:53;54.60;;;26.20;;
21876;SDS011;11103;43.788;23.710;2022-12-20T00:06:20;54.10;;;24.50;;
21876;SDS011;11103;43.788;23.710;2022-12-20T00:08:46;67.97;;;29.90;;
21876;SDS011;11103;43.788;23.710;2022-12-20T00:11:16;52.50;;;23.20;;
21876;SDS011;11103;43.788;23.710;2022-12-20T00:13:44;61.40;;;25.70;;
21876;SDS011;11103;43.788;23.710;2022-12-20T00:18:41;63.93;;;26.30;;
21876;SDS011;11103;43.788;23.710;2022-12-20T00:21:08;64.63;;;24.80;;
21876;SDS011;11103;43.788;23.710;2022-12-20T00:23:35;58.30;;;25.07;;
21876;SDS011;11103;43.788;23.710;2022-12-20T00:26:11;52.43;;;25.03;;
21876;SDS011;11103;43.788;23.710;2022-12-20T00:28:38;61.73;;;24.30;;
21876;SDS011;11103;43.788;23.710;2022-12-20T00:31:05;53.80;;;22.63;;
21876;SDS011;11103;43.788;23.710;2022-12-20T00:33:33;52.77;;;23.10;;
21876;SDS011;11103;43.788;23.710;2022-12-20T00:36:01;60.97;;;23.83;;
21876;SDS011;11103;43.788;23.710;2022-12-20T00:38:26;60.23;;;25.43;;
21876;SDS011;11103;43.788;23.710;2022-12-20T00:40:59;54.57;;;23.70;;
21876;SDS011;11103;43.788;23.710;2022-12-20T00:43:29;51.13;;;24.17;;
21876;SDS011;11103;43.788;23.710;2022-12-20T00:45:55;50.33;;;21.80;;
21876;SDS011;11103;43.788;23.710;2022-12-20T00:48:21;53.87;;;22.83;;
21876;SDS011;11103;43.788;23.710;2022-12-20T00:50:46;56.20;;;25.07;;
21876;SDS011;11103;43.788;23.710;2022-12-20T00:53:12;58.20;;;24.50;;
21876;SDS011;11103;43.788;23.710;2022-12-20T00:55:41;60.07;;;24.27;;
21876;SDS011;11103;43.788;23.710;2022-12-20T00:58:07;48.87;;;22.17;;
21876;SDS011;11103;43.788;23.710;2022-12-20T01:00:32;55.33;;;23.93;;
21876;SDS011;11103;43.788;23.710;2022-12-20T01:02:58;51.57;;;22.27;;
21876;SDS011;11103;43.788;23.710;2022-12-20T01:05:23;55.97;;;23.37;;
21876;SDS011;11103;43.788;23.710;2022-12-20T01:07:49;51.70;;;22.77;;
21876;SDS011;11103;43.788;23.710;2022-12-20T01:10:15;52.33;;;22.83;;
21876;SDS011;11103;43.788;23.710;2022-12-20T01:12:42;49.07;;;21.23;;
21876;SDS011;11103;43.788;23.710;2022-12-20T01:15:07;53.53;;;22.13;;
21876;SDS011;11103;43.788;23.710;2022-12-20T01:17:33;49.37;;;21.93;;
21876;SDS011;11103;43.788;23.710;2022-12-20T01:19:59;52.67;;;21.83;;
21876;SDS011;11103;43.788;23.710;2022-12-20T01:22:24;46.67;;;21.80;;
21876;SDS011;11103;43.788;23.710;2022-12-20T01:24:50;51.13;;;21.73;;
21876;SDS011;11103;43.788;23.710;2022-12-20T01:27:15;49.37;;;22.10;;
21876;SDS011;11103;43.788;23.710;2022-12-20T01:29:40;50.60;;;22.37;;
21876;SDS011;11103;43.788;23.710;2022-12-20T01:32:06;50.77;;;22.27;;
21876;SDS011;11103;43.788;23.710;2022-12-20T01:34:31;49.90;;;22.23;;
21876;SDS011;11103;43.788;23.710;2022-12-20T01:36:56;50.13;;;22.10;;
21876;SDS011;11103;43.788;23.710;2022-12-20T01:39:22;52.77;;;21.63;;
21876;SDS011;11103;43.788;23.710;2022-12-20T01:41:47;51.10;;;22.77;;
21876;SDS011;11103;43.788;23.710;2022-12-20T01:46:41;57.67;;;22.20;;
21876;SDS011;11103;43.788;23.710;2022-12-20T01:49:13;46.43;;;21.27;;
21876;SDS011;11103;43.788;23.710;2022-12-20T01:51:43;46.50;;;21.17;;
21876;SDS011;11103;43.788;23.710;2022-12-20T01:54:15;45.50;;;20.83;;
21876;SDS011;11103;43.788;23.710;2022-12-20T01:56:46;46.00;;;19.93;;
21876;SDS011;11103;43.788;23.710;2022-12-20T01:59:16;48.17;;;21.93;;
21876;SDS011;11103;43.788;23.710;2022-12-20T02:01:41;45.67;;;21.60;;
21876;SDS011;11103;43.788;23.710;2022-12-20T02:04:08;45.47;;;21.67;;
21876;SDS011;11103;43.788;23.710;2022-12-20T02:06:34;50.40;;;20.77;;
21876;SDS011;11103;43.788;23.710;2022-12-20T02:08:59;50.87;;;21.73;;
21876;SDS011;11103;43.788;23.710;2022-12-20T02:11:30;53.10;;;22.90;;
21876;SDS011;11103;43.788;23.710;2022-12-20T02:17:34;43.83;;;20.17;;
21876;SDS011;11103;43.788;23.710;2022-12-20T02:31:39;42.40;;;18.60;;
21876;SDS011;11103;43.788;23.710;2022-12-20T02:34:13;50.53;;;19.97;;
21876;SDS011;11103;43.788;23.710;2022-12-20T02:36:40;42.20;;;18.40;;
21876;SDS011;11103;43.788;23.710;2022-12-20T02:39:06;48.00;;;20.30;;
21876;SDS011;11103;43.788;23.710;2022-12-20T02:41:37;49.23;;;19.40;;
21876;SDS011;11103;43.788;23.710;2022-12-20T02:44:08;38.67;;;19.17;;
21876;SDS011;11103;43.788;23.710;2022-12-20T02:46:55;40.87;;;18.70;;
21876;SDS011;11103;43.788;23.710;2022-12-20T02:49:25;44.77;;;20.40;;
21876;SDS011;11103;43.788;23.710;2022-12-20T02:51:54;42.63;;;19.63;;
21876;SDS011;11103;43.788;23.710;2022-12-20T02:54:21;45.03;;;18.63;;
21876;SDS011;11103;43.788;23.710;2022-12-20T02:56:58;37.17;;;16.30;;
21876;SDS011;11103;43.788;23.710;2022-12-20T02:59:38;44.17;;;19.50;;
21876;SDS011;11103;43.788;23.710;2022-12-20T03:02:07;47.07;;;19.40;;
21876;SDS011;11103;43.788;23.710;2022-12-20T03:04:35;47.50;;;18.80;;
21876;SDS011;11103;43.788;23.710;2022-12-20T03:07:05;38.23;;;18.63;;
21876;SDS011;11103;43.788;23.710;2022-12-20T03:09:48;41.60;;;19.53;;
21876;SDS011;11103;43.788;23.710;2022-12-20T03:12:15;54.43;;;19.17;;
21876;SDS011;11103;43.788;23.710;2022-12-20T03:14:43;37.70;;;17.57;;
21876;SDS011;11103;43.788;23.710;2022-12-20T03:17:08;36.63;;;18.53;;
21876;SDS011;11103;43.788;23.710;2022-12-20T03:19:35;47.43;;;18.30;;
21876;SDS011;11103;43.788;23.710;2022-12-20T03:22:00;47.47;;;18.03;;
21876;SDS011;11103;43.788;23.710;2022-12-20T03:24:26;45.73;;;19.60;;
21876;SDS011;11103;43.788;23.710;2022-12-20T03:26:51;40.17;;;18.17;;
21876;SDS011;11103;43.788;23.710;2022-12-20T03:29:17;39.53;;;19.00;;
21876;SDS011;11103;43.788;23.710;2022-12-20T03:31:42;38.17;;;16.97;;
21876;SDS011;11103;43.788;23.710;2022-12-20T03:34:07;41.97;;;18.67;;
21876;SDS011;11103;43.788;23.710;2022-12-20T03:36:34;39.53;;;16.57;;
21876;SDS011;11103;43.788;23.710;2022-12-20T03:39:00;39.87;;;17.60;;
21876;SDS011;11103;43.788;23.710;2022-12-20T03:41:25;47.60;;;19.53;;
21876;SDS011;11103;43.788;23.710;2022-12-20T03:43:51;40.03;;;17.20;;
21876;SDS011;11103;43.788;23.710;2022-12-20T03:46:17;40.63;;;18.77;;
21876;SDS011;11103;43.788;23.710;2022-12-20T03:48:42;46.63;;;19.43;;
21876;SDS011;11103;43.788;23.710;2022-12-20T03:51:08;45.10;;;18.50;;
21876;SDS011;11103;43.788;23.710;2022-12-20T03:53:34;43.77;;;19.00;;
21876;SDS011;11103;43.788;23.710;2022-12-20T03:55:59;42.03;;;18.73;;
21876;SDS011;11103;43.788;23.710;2022-12-20T03:58:25;39.20;;;18.70;;
21876;SDS011;11103;43.788;23.710;2022-12-20T04:00:50;43.13;;;18.10;;
21876;SDS011;11103;43.788;23.710;2022-12-20T04:03:16;33.67;;;16.77;;
21876;SDS011;11103;43.788;23.710;2022-12-20T04:05:42;41.53;;;17.77;;
21876;SDS011;11103;43.788;23.710;2022-12-20T04:08:07;43.63;;;17.83;;
21876;SDS011;11103;43.788;23.710;2022-12-20T04:10:33;41.63;;;18.50;;
21876;SDS011;11103;43.788;23.710;2022-12-20T04:13:18;40.53;;;18.53;;
21876;SDS011;11103;43.788;23.710;2022-12-20T04:15:43;38.83;;;18.13;;
21876;SDS011;11103;43.788;23.710;2022-12-20T04:18:09;51.37;;;17.33;;
21876;SDS011;11103;43.788;23.710;2022-12-20T04:20:34;53.27;;;17.77;;
21876;SDS011;11103;43.788;23.710;2022-12-20T04:23:00;40.30;;;18.97;;
21876;SDS011;11103;43.788;23.710;2022-12-20T04:25:25;48.17;;;17.70;;
21876;SDS011;11103;43.788;23.710;2022-12-20T04:27:50;23.13;;;12.20;;
21876;SDS011;11103;43.788;23.710;2022-12-20T04:30:16;34.80;;;17.03;;
21876;SDS011;11103;43.788;23.710;2022-12-20T04:32:42;43.53;;;17.40;;
21876;SDS011;11103;43.788;23.710;2022-12-20T04:35:08;37.37;;;17.63;;
21876;SDS011;11103;43.788;23.710;2022-12-20T04:37:34;41.73;;;17.27;;
21876;SDS011;11103;43.788;23.710;2022-12-20T04:39:59;39.57;;;17.77;;
21876;SDS011;11103;43.788;23.710;2022-12-20T04:42:25;45.20;;;18.10;;
21876;SDS011;11103;43.788;23.710;2022-12-20T04:44:51;44.57;;;20.77;;
21876;SDS011;11103;43.788;23.710;2022-12-20T04:47:17;42.73;;;17.63;;
21876;SDS011;11103;43.788;23.710;2022-12-20T04:49:42;45.70;;;21.03;;
21876;SDS011;11103;43.788;23.710;2022-12-20T04:52:07;37.83;;;17.13;;
21876;SDS011;11103;43.788;23.710;2022-12-20T04:54:51;42.93;;;18.33;;
21876;SDS011;11103;43.788;23.710;2022-12-20T04:57:17;35.73;;;16.10;;
21876;SDS011;11103;43.788;23.710;2022-12-20T04:59:42;40.80;;;17.67;;
21876;SDS011;11103;43.788;23.710;2022-12-20T05:02:08;38.47;;;17.33;;
21876;SDS011;11103;43.788;23.710;2022-12-20T05:04:33;35.37;;;15.97;;
21876;SDS011;11103;43.788;23.710;2022-12-20T05:06:59;32.47;;;16.67;;
21876;SDS011;11103;43.788;23.710;2022-12-20T05:09:24;45.13;;;18.77;;
21876;SDS011;11103;43.788;23.710;2022-12-20T05:11:49;41.23;;;17.43;;
21876;SDS011;11103;43.788;23.710;2022-12-20T05:14:15;41.63;;;18.30;;
21876;SDS011;11103;43.788;23.710;2022-12-20T05:16:40;46.30;;;18.00;;
21876;SDS011;11103;43.788;23.710;2022-12-20T05:19:06;43.10;;;18.27;;
21876;SDS011;11103;43.788;23.710;2022-12-20T05:21:31;43.57;;;17.63;;
21876;SDS011;11103;43.788;23.710;2022-12-20T05:24:15;42.17;;;18.23;;
21876;SDS011;11103;43.788;23.710;2022-12-20T05:26:59;44.03;;;17.47;;
21876;SDS011;11103;43.788;23.710;2022-12-20T05:29:25;42.40;;;18.27;;
21876;SDS011;11103;43.788;23.710;2022-12-20T05:31:51;36.93;;;16.67;;
21876;SDS011;11103;43.788;23.710;2022-12-20T05:34:17;38.93;;;19.00;;
21876;SDS011;11103;43.788;23.710;2022-12-20T05:36:43;39.27;;;18.63;;
21876;SDS011;11103;43.788;23.710;2022-12-20T05:39:09;39.90;;;18.90;;
21876;SDS011;11103;43.788;23.710;2022-12-20T05:41:36;41.23;;;16.77;;
21876;SDS011;11103;43.788;23.710;2022-12-20T05:44:02;36.57;;;16.90;;
21876;SDS011;11103;43.788;23.710;2022-12-20T05:46:28;42.33;;;18.43;;
21876;SDS011;11103;43.788;23.710;2022-12-20T05:48:53;42.27;;;16.50;;
21876;SDS011;11103;43.788;23.710;2022-12-20T05:51:18;43.30;;;16.97;;
21876;SDS011;11103;43.788;23.710;2022-12-20T05:53:46;40.23;;;17.47;;
21876;SDS011;11103;43.788;23.710;2022-12-20T05:56:11;39.40;;;16.40;;
21876;SDS011;11103;43.788;23.710;2022-12-20T05:58:37;52.47;;;18.37;;
21876;SDS011;11103;43.788;23.710;2022-12-20T06:01:03;40.27;;;18.50;;
21876;SDS011;11103;43.788;23.710;2022-12-20T06:03:30;42.20;;;18.43;;
21876;SDS011;11103;43.788;23.710;2022-12-20T06:05:55;38.00;;;18.23;;
21876;SDS011;11103;43.788;23.710;2022-12-20T06:08:21;34.07;;;15.90;;
21876;SDS011;11103;43.788;23.710;2022-12-20T06:10:48;36.47;;;17.20;;
21876;SDS011;11103;43.788;23.710;2022-12-20T06:13:14;40.90;;;18.13;;
21876;SDS011;11103;43.788;23.710;2022-12-20T06:15:40;36.90;;;16.03;;
21876;SDS011;11103;43.788;23.710;2022-12-20T06:18:05;38.90;;;18.00;;
21876;SDS011;11103;43.788;23.710;2022-12-20T06:20:31;32.63;;;15.97;;
21876;SDS011;11103;43.788;23.710;2022-12-20T06:23:00;42.53;;;17.17;;
21876;SDS011;11103;43.788;23.710;2022-12-20T06:25:27;37.80;;;16.43;;
21876;SDS011;11103;43.788;23.710;2022-12-20T06:27:52;40.17;;;18.73;;
21876;SDS011;11103;43.788;23.710;2022-12-20T06:30:18;36.60;;;16.43;;
21876;SDS011;11103;43.788;23.710;2022-12-20T06:32:44;39.77;;;17.53;;
21876;SDS011;11103;43.788;23.710;2022-12-20T06:35:10;42.20;;;18.13;;
21876;SDS011;11103;43.788;23.710;2022-12-20T06:37:35;46.73;;;18.20;;
21876;SDS011;11103;43.788;23.710;2022-12-20T06:40:04;40.50;;;17.17;;
21876;SDS011;11103;43.788;23.710;2022-12-20T06:42:30;36.40;;;16.70;;
21876;SDS011;11103;43.788;23.710;2022-12-20T06:44:56;39.93;;;18.57;;
21876;SDS011;11103;43.788;23.710;2022-12-20T06:47:22;35.57;;;16.90;;
21876;SDS011;11103;43.788;23.710;2022-12-20T06:49:47;37.23;;;17.07;;
21876;SDS011;11103;43.788;23.710;2022-12-20T06:52:12;52.27;;;24.03;;
21876;SDS011;11103;43.788;23.710;2022-12-20T06:54:38;38.60;;;17.73;;
21876;SDS011;11103;43.788;23.710;2022-12-20T06:57:03;39.47;;;18.53;;
21876;SDS011;11103;43.788;23.710;2022-12-20T06:59:31;40.00;;;19.37;;
21876;SDS011;11103;43.788;23.710;2022-12-20T07:01:57;40.50;;;17.83;;
21876;SDS011;11103;43.788;23.710;2022-12-20T07:04:22;38.47;;;18.17;;
21876;SDS011;11103;43.788;23.710;2022-12-20T07:06:48;44.33;;;18.03;;
21876;SDS011;11103;43.788;23.710;2022-12-20T07:09:13;37.90;;;18.10;;
21876;SDS011;11103;43.788;23.710;2022-12-20T07:11:39;47.97;;;17.73;;
21876;SDS011;11103;43.788;23.710;2022-12-20T07:14:04;40.07;;;17.87;;
21876;SDS011;11103;43.788;23.710;2022-12-20T07:16:30;43.83;;;18.70;;
21876;SDS011;11103;43.788;23.710;2022-12-20T07:18:56;45.07;;;18.30;;
21876;SDS011;11103;43.788;23.710;2022-12-20T07:21:21;51.60;;;19.50;;
21876;SDS011;11103;43.788;23.710;2022-12-20T07:23:47;49.60;;;21.60;;
21876;SDS011;11103;43.788;23.710;2022-12-20T07:26:12;38.40;;;17.27;;
21876;SDS011;11103;43.788;23.710;2022-12-20T07:28:39;37.37;;;17.90;;
21876;SDS011;11103;43.788;23.710;2022-12-20T07:31:17;39.33;;;17.97;;
21876;SDS011;11103;43.788;23.710;2022-12-20T07:33:42;48.30;;;18.70;;
21876;SDS011;11103;43.788;23.710;2022-12-20T07:36:11;50.53;;;21.07;;
21876;SDS011;11103;43.788;23.710;2022-12-20T07:38:38;42.27;;;17.27;;
21876;SDS011;11103;43.788;23.710;2022-12-20T07:41:07;38.30;;;17.80;;
21876;SDS011;11103;43.788;23.710;2022-12-20T07:43:37;41.97;;;19.47;;
21876;SDS011;11103;43.788;23.710;2022-12-20T07:46:03;40.43;;;17.57;;
21876;SDS011;11103;43.788;23.710;2022-12-20T07:48:29;61.63;;;28.90;;
21876;SDS011;11103;43.788;23.710;2022-12-20T07:51:00;37.33;;;17.53;;
21876;SDS011;11103;43.788;23.710;2022-12-20T07:53:31;39.43;;;17.73;;
21876;SDS011;11103;43.788;23.710;2022-12-20T07:55:58;34.80;;;17.30;;
21876;SDS011;11103;43.788;23.710;2022-12-20T07:58:26;46.83;;;20.17;;
21876;SDS011;11103;43.788;23.710;2022-12-20T08:00:52;38.97;;;19.70;;
21876;SDS011;11103;43.788;23.710;2022-12-20T08:03:19;46.30;;;20.17;;
21876;SDS011;11103;43.788;23.710;2022-12-20T08:05:50;40.40;;;16.73;;
21876;SDS011;11103;43.788;23.710;2022-12-20T08:08:19;47.23;;;21.47;;
21876;SDS011;11103;43.788;23.710;2022-12-20T08:10:46;35.10;;;17.97;;
21876;SDS011;11103;43.788;23.710;2022-12-20T08:13:13;37.90;;;18.10;;
21876;SDS011;11103;43.788;23.710;2022-12-20T08:15:39;42.97;;;19.03;;
21876;SDS011;11103;43.788;23.710;2022-12-20T08:18:05;49.03;;;20.97;;
21876;SDS011;11103;43.788;23.710;2022-12-20T08:20:30;43.87;;;18.57;;
21876;SDS011;11103;43.788;23.710;2022-12-20T08:22:56;41.07;;;18.40;;
21876;SDS011;11103;43.788;23.710;2022-12-20T08:25:22;43.63;;;18.93;;
21876;SDS011;11103;43.788;23.710;2022-12-20T08:27:47;46.50;;;20.13;;
21876;SDS011;11103;43.788;23.710;2022-12-20T08:30:13;43.23;;;20.97;;
21876;SDS011;11103;43.788;23.710;2022-12-20T08:32:39;33.80;;;17.40;;
21876;SDS011;11103;43.788;23.710;2022-12-20T08:35:04;41.73;;;19.33;;
21876;SDS011;11103;43.788;23.710;2022-12-20T08:37:31;39.53;;;18.33;;
21876;SDS011;11103;43.788;23.710;2022-12-20T08:39:56;41.90;;;18.00;;
21876;SDS011;11103;43.788;23.710;2022-12-20T08:42:22;38.73;;;19.87;;
21876;SDS011;11103;43.788;23.710;2022-12-20T08:44:47;45.13;;;20.00;;
21876;SDS011;11103;43.788;23.710;2022-12-20T08:47:13;42.67;;;19.37;;
21876;SDS011;11103;43.788;23.710;2022-12-20T08:49:38;40.93;;;19.00;;
21876;SDS011;11103;43.788;23.710;2022-12-20T08:52:03;41.90;;;19.00;;
21876;SDS011;11103;43.788;23.710;2022-12-20T08:54:29;38.80;;;18.83;;
21876;SDS011;11103;43.788;23.710;2022-12-20T08:59:42;38.70;;;18.30;;
21876;SDS011;11103;43.788;23.710;2022-12-20T09:02:08;42.73;;;19.33;;
21876;SDS011;11103;43.788;23.710;2022-12-20T09:04:33;40.83;;;19.67;;
21876;SDS011;11103;43.788;23.710;2022-12-20T09:06:59;34.63;;;18.03;;
21876;SDS011;11103;43.788;23.710;2022-12-20T09:09:24;43.60;;;20.03;;
21876;SDS011;11103;43.788;23.710;2022-12-20T09:11:49;42.47;;;19.73;;
21876;SDS011;11103;43.788;23.710;2022-12-20T09:14:17;36.80;;;17.30;;
21876;SDS011;11103;43.788;23.710;2022-12-20T09:16:43;45.80;;;20.33;;
21876;SDS011;11103;43.788;23.710;2022-12-20T09:19:12;40.90;;;18.57;;
21876;SDS011;11103;43.788;23.710;2022-12-20T09:21:38;43.47;;;20.73;;
21876;SDS011;11103;43.788;23.710;2022-12-20T09:24:04;46.00;;;18.10;;
21876;SDS011;11103;43.788;23.710;2022-12-20T09:26:30;37.77;;;18.30;;
21876;SDS011;11103;43.788;23.710;2022-12-20T09:28:56;41.13;;;19.10;;
21876;SDS011;11103;43.788;23.710;2022-12-20T09:31:23;35.80;;;17.50;;
21876;SDS011;11103;43.788;23.710;2022-12-20T09:33:52;36.83;;;18.30;;
21876;SDS011;11103;43.788;23.710;2022-12-20T09:36:19;37.93;;;19.27;;
21876;SDS011;11103;43.788;23.710;2022-12-20T09:38:46;42.07;;;19.23;;
21876;SDS011;11103;43.788;23.710;2022-12-20T09:41:21;36.67;;;18.27;;
21876;SDS011;11103;43.788;23.710;2022-12-20T09:44:04;42.83;;;19.57;;
21876;SDS011;11103;43.788;23.710;2022-12-20T09:46:35;48.20;;;19.77;;
21876;SDS011;11103;43.788;23.710;2022-12-20T09:49:01;41.97;;;21.03;;
21876;SDS011;11103;43.788;23.710;2022-12-20T09:59:32;41.80;;;19.80;;
21876;SDS011;11103;43.788;23.710;2022-12-20T10:01:59;45.03;;;20.70;;
21876;SDS011;11103;43.788;23.710;2022-12-20T10:04:26;46.67;;;21.63;;
21876;SDS011;11103;43.788;23.710;2022-12-20T10:15:37;46.27;;;20.27;;
21876;SDS011;11103;43.788;23.710;2022-12-20T10:23:48;51.17;;;19.87;;
21876;SDS011;11103;43.788;23.710;2022-12-20T10:26:26;42.03;;;20.27;;
21876;SDS011;11103;43.788;23.710;2022-12-20T10:28:52;45.23;;;22.33;;
21876;SDS011;11103;43.788;23.710;2022-12-20T10:31:18;48.03;;;19.73;;
21876;SDS011;11103;43.788;23.710;2022-12-20T10:33:43;46.13;;;20.30;;
21876;SDS011;11103;43.788;23.710;2022-12-20T10:36:17;45.80;;;22.10;;
21876;SDS011;11103;43.788;23.710;2022-12-20T10:38:45;36.53;;;19.33;;
21876;SDS011;11103;43.788;23.710;2022-12-20T10:41:16;50.53;;;21.60;;
21876;SDS011;11103;43.788;23.710;2022-12-20T10:43:46;42.57;;;19.80;;
21876;SDS011;11103;43.788;23.710;2022-12-20T10:46:16;43.20;;;20.77;;
21876;SDS011;11103;43.788;23.710;2022-12-20T10:48:43;45.13;;;21.03;;
21876;SDS011;11103;43.788;23.710;2022-12-20T10:53:52;48.17;;;19.77;;
21876;SDS011;11103;43.788;23.710;2022-12-20T10:56:43;45.73;;;20.07;;
21876;SDS011;11103;43.788;23.710;2022-12-20T11:01:45;39.87;;;19.57;;
21876;SDS011;11103;43.788;23.710;2022-12-20T11:04:31;45.27;;;19.70;;
21876;SDS011;11103;43.788;23.710;2022-12-20T11:06:59;46.97;;;21.03;;
21876;SDS011;11103;43.788;23.710;2022-12-20T11:09:30;39.60;;;19.17;;
21876;SDS011;11103;43.788;23.710;2022-12-20T11:12:01;36.43;;;19.17;;
21876;SDS011;11103;43.788;23.710;2022-12-20T11:14:34;43.27;;;21.00;;
21876;SDS011;11103;43.788;23.710;2022-12-20T11:17:35;43.00;;;19.43;;
21876;SDS011;11103;43.788;23.710;2022-12-20T11:26:14;36.97;;;18.40;;
21876;SDS011;11103;43.788;23.710;2022-12-20T11:29:02;52.63;;;20.50;;
21876;SDS011;11103;43.788;23.710;2022-12-20T11:31:48;40.07;;;19.53;;
21876;SDS011;11103;43.788;23.710;2022-12-20T11:39:37;44.37;;;21.40;;
21876;SDS011;11103;43.788;23.710;2022-12-20T11:44:51;49.03;;;18.63;;
21876;SDS011;11103;43.788;23.710;2022-12-20T11:58:03;42.07;;;17.70;;
21876;SDS011;11103;43.788;23.710;2022-12-20T12:00:33;43.67;;;19.60;;
21876;SDS011;11103;43.788;23.710;2022-12-20T12:06:10;41.43;;;18.23;;
21876;SDS011;11103;43.788;23.710;2022-12-20T12:08:44;46.27;;;20.70;;
21876;SDS011;11103;43.788;23.710;2022-12-20T12:11:31;42.40;;;21.67;;
21876;SDS011;11103;43.788;23.710;2022-12-20T12:14:02;36.73;;;19.40;;
21876;SDS011;11103;43.788;23.710;2022-12-20T12:16:34;43.53;;;19.20;;
21876;SDS011;11103;43.788;23.710;2022-12-20T12:19:10;46.33;;;19.60;;
21876;SDS011;11103;43.788;23.710;2022-12-20T12:21:43;41.00;;;18.90;;
21876;SDS011;11103;43.788;23.710;2022-12-20T12:24:24;37.53;;;18.90;;
21876;SDS011;11103;43.788;23.710;2022-12-20T12:26:59;38.93;;;18.77;;
21876;SDS011;11103;43.788;23.710;2022-12-20T12:29:27;42.07;;;20.23;;
21876;SDS011;11103;43.788;23.710;2022-12-20T12:32:37;39.57;;;18.83;;
21876;SDS011;11103;43.788;23.710;2022-12-20T12:38:20;42.17;;;19.53;;
21876;SDS011;11103;43.788;23.710;2022-12-20T12:46:14;56.13;;;25.27;;
21876;SDS011;11103;43.788;23.710;2022-12-20T12:48:44;42.80;;;19.80;;
21876;SDS011;11103;43.788;23.710;2022-12-20T12:51:20;39.97;;;20.40;;
21876;SDS011;11103;43.788;23.710;2022-12-20T12:53:51;43.83;;;20.07;;
21876;SDS011;11103;43.788;23.710;2022-12-20T13:04:51;39.90;;;18.33;;
21876;SDS011;11103;43.788;23.710;2022-12-20T13:15:01;40.47;;;19.13;;
21876;SDS011;11103;43.788;23.710;2022-12-20T13:17:46;42.37;;;19.43;;
21876;SDS011;11103;43.788;23.710;2022-12-20T13:20:25;40.43;;;19.57;;
21876;SDS011;11103;43.788;23.710;2022-12-20T13:25:38;38.03;;;18.40;;
21876;SDS011;11103;43.788;23.710;2022-12-20T13:30:43;45.00;;;19.97;;
21876;SDS011;11103;43.788;23.710;2022-12-20T13:35:45;46.47;;;20.83;;
21876;SDS011;11103;43.788;23.710;2022-12-20T13:43:48;56.27;;;24.50;;
21876;SDS011;11103;43.788;23.710;2022-12-20T13:46:20;42.73;;;20.10;;
21876;SDS011;11103;43.788;23.710;2022-12-20T13:48:52;39.60;;;20.53;;
21876;SDS011;11103;43.788;23.710;2022-12-20T13:51:22;43.20;;;20.13;;
21876;SDS011;11103;43.788;23.710;2022-12-20T13:59:03;38.20;;;18.77;;
21876;SDS011;11103;43.788;23.710;2022-12-20T14:01:32;40.67;;;21.40;;
21876;SDS011;11103;43.788;23.710;2022-12-20T14:04:01;48.23;;;26.03;;
21876;SDS011;11103;43.788;23.710;2022-12-20T14:06:28;47.23;;;20.23;;
21876;SDS011;11103;43.788;23.710;2022-12-20T14:08:54;41.57;;;20.53;;
21876;SDS011;11103;43.788;23.710;2022-12-20T14:11:20;43.13;;;19.93;;
21876;SDS011;11103;43.788;23.710;2022-12-20T14:16:23;37.43;;;17.67;;
21876;SDS011;11103;43.788;23.710;2022-12-20T14:18:50;42.17;;;19.80;;
21876;SDS011;11103;43.788;23.710;2022-12-20T14:21:25;41.30;;;18.53;;
21876;SDS011;11103;43.788;23.710;2022-12-20T14:23:53;52.03;;;21.33;;
21876;SDS011;11103;43.788;23.710;2022-12-20T14:26:21;42.03;;;19.97;;
21876;SDS011;11103;43.788;23.710;2022-12-20T14:28:51;37.40;;;18.00;;
21876;SDS011;11103;43.788;23.710;2022-12-20T14:31:26;36.10;;;19.37;;
21876;SDS011;11103;43.788;23.710;2022-12-20T14:36:38;39.10;;;18.50;;
21876;SDS011;11103;43.788;23.710;2022-12-20T14:39:25;40.77;;;19.23;;
21876;SDS011;11103;43.788;23.710;2022-12-20T14:44:33;37.90;;;18.33;;
21876;SDS011;11103;43.788;23.710;2022-12-20T14:47:00;36.10;;;18.90;;
21876;SDS011;11103;43.788;23.710;2022-12-20T14:49:36;41.87;;;19.07;;
21876;SDS011;11103;43.788;23.710;2022-12-20T14:54:38;39.40;;;18.50;;
21876;SDS011;11103;43.788;23.710;2022-12-20T14:57:43;42.87;;;18.67;;
21876;SDS011;11103;43.788;23.710;2022-12-20T15:00:02;43.13;;;19.13;;
21876;SDS011;11103;43.788;23.710;2022-12-20T15:08:18;39.53;;;18.13;;
21876;SDS011;11103;43.788;23.710;2022-12-20T15:10:57;37.10;;;18.77;;
21876;SDS011;11103;43.788;23.710;2022-12-20T15:13:36;38.50;;;18.87;;
21876;SDS011;11103;43.788;23.710;2022-12-20T15:16:16;37.87;;;18.23;;
21876;SDS011;11103;43.788;23.710;2022-12-20T15:18:43;39.03;;;18.77;;
21876;SDS011;11103;43.788;23.710;2022-12-20T15:23:47;40.77;;;21.30;;
21876;SDS011;11103;43.788;23.710;2022-12-20T15:26:18;40.20;;;19.20;;
21876;SDS011;11103;43.788;23.710;2022-12-20T15:28:46;39.07;;;19.00;;
21876;SDS011;11103;43.788;23.710;2022-12-20T15:31:11;43.00;;;21.43;;
21876;SDS011;11103;43.788;23.710;2022-12-20T15:33:39;43.83;;;21.10;;
21876;SDS011;11103;43.788;23.710;2022-12-20T15:36:06;43.60;;;19.17;;
21876;SDS011;11103;43.788;23.710;2022-12-20T15:38:37;39.43;;;19.23;;
21876;SDS011;11103;43.788;23.710;2022-12-20T15:41:03;43.00;;;19.67;;
21876;SDS011;11103;43.788;23.710;2022-12-20T15:43:32;46.50;;;21.80;;
21876;SDS011;11103;43.788;23.710;2022-12-20T15:46:02;45.00;;;20.33;;
21876;SDS011;11103;43.788;23.710;2022-12-20T15:48:27;39.37;;;18.77;;
21876;SDS011;11103;43.788;23.710;2022-12-20T15:50:55;38.60;;;18.80;;
21876;SDS011;11103;43.788;23.710;2022-12-20T15:53:24;39.20;;;19.70;;
21876;SDS011;11103;43.788;23.710;2022-12-20T15:55:53;51.37;;;18.87;;
21876;SDS011;11103;43.788;23.710;2022-12-20T15:58:20;36.03;;;17.30;;
21876;SDS011;11103;43.788;23.710;2022-12-20T16:00:47;38.73;;;17.87;;
21876;SDS011;11103;43.788;23.710;2022-12-20T16:03:14;44.43;;;19.90;;
21876;SDS011;11103;43.788;23.710;2022-12-20T16:05:42;50.20;;;23.13;;
21876;SDS011;11103;43.788;23.710;2022-12-20T16:08:08;41.53;;;19.43;;
21876;SDS011;11103;43.788;23.710;2022-12-20T16:10:33;38.13;;;18.53;;
21876;SDS011;11103;43.788;23.710;2022-12-20T16:12:59;42.97;;;18.57;;
21876;SDS011;11103;43.788;23.710;2022-12-20T16:15:24;43.20;;;18.90;;
21876;SDS011;11103;43.788;23.710;2022-12-20T16:17:50;45.17;;;18.40;;
21876;SDS011;11103;43.788;23.710;2022-12-20T16:20:15;49.90;;;18.80;;
21876;SDS011;11103;43.788;23.710;2022-12-20T16:22:41;40.83;;;20.43;;
21876;SDS011;11103;43.788;23.710;2022-12-20T16:25:09;39.93;;;19.13;;
21876;SDS011;11103;43.788;23.710;2022-12-20T16:27:49;47.70;;;21.43;;
21876;SDS011;11103;43.788;23.710;2022-12-20T16:30:15;43.63;;;20.47;;
21876;SDS011;11103;43.788;23.710;2022-12-20T16:32:40;42.47;;;20.10;;
21876;SDS011;11103;43.788;23.710;2022-12-20T16:35:09;43.37;;;19.23;;
21876;SDS011;11103;43.788;23.710;2022-12-20T16:37:57;43.73;;;19.73;;